Terminal Aerodrome Forecast
Issued by NWS Chicago, IL

Home | Current Version | Previous Version | Graphics & Text | Print | Product List | Glossary On
Versions: 1 2 3 4 5 6 7 8 9 10 11 12 13 14 15 16 17 18 19 20 21 22 23 24 25 26 27 28 29 30 31 32 33
000
FTUS43 KLOT 160800 AAB
TAFRFD
TAF AMD
KRFD 160855Z 1609/1706 VRB03KT 1SM -SHRA BR OVC003
     FM161000 34005KT 2SM -SHRA BR OVC004
     FM161200 32009KT 3SM -SHRADZ BR OVC006
     FM161400 31012KT 6SM BR VCSH OVC009
     FM161600 31016G25KT P6SM OVC015
     FM170100 30014G21KT P6SM OVC030=

USA.gov is the U.S. government's official web portal to all federal, state and local government web resources and services.